• Join FlightAware (Why Join?)
  • Login
  • US Flag 
01:55PM EDT


 

Airport Tracker/Info


-or-


 

Live Flight TrackerFlight Track Log ✈ CTL22 ✈ 26-Apr-2013 ✈ KAZO - KBKL

Flight Track Log - Related Links

Times and Time Zones

All times are in EDT time to prevent confusion due to time zone crossing. See the CTL22 flight status page for this flight to view local times or setup timezone preferences in your user account.

Time Position Orientation Groundspeed Altitude Reporting Facility
EDT Latitude Longitude Course Direction KTS MPH feet Rate Location/Type
08:29PM 42.1792 -85.4278 116° Southeast 134 154 4,000  Level Chicago Center
08:30PM 42.1592 -85.3675 114° Southeast 143 165 5,000 840 Climbing Chicago Center
08:31PM 42.1403 -85.3186 118° Southeast 148 170 5,800 780 Climbing Chicago Center
08:32PM 42.1724 -85.1832 103° East  Level Estimated
08:32PM 42.1228 -85.2675 115° Southeast 149 171 6,700  Level Chicago Center
08:33PM 42.1619 -85.1219 103° East  Level Estimated
08:33PM 42.1044 -85.2169 116° Southeast 150 173 7,000  Level Chicago Center
08:34PM 42.0850 -85.1561 113° Southeast 167 192 7,000  Level Chicago Center
08:35PM 42.0633 -85.0950 116° Southeast 177 204 7,100  Climbing Chicago Center
08:36PM 42.0392 -85.0197 113° Southeast 181 208 7,000  Descending Chicago Center
08:37PM 42.0194 -84.9589 114° Southeast 178 205 7,100  Climbing Chicago Center
08:38PM 41.9983 -84.8978 115° Southeast 179 206 7,100 -60 Level Chicago Center
08:39PM 41.9756 -84.8383 117° Southeast 178 205 7,000 -60 Descending Chicago Center
08:40PM 41.9550 -84.7761 114° Southeast 181 208 7,000  Level Chicago Center
08:41PM 41.9328 -84.7153 116° Southeast 181 208 7,000  Level Chicago Center
08:42PM 41.9061 -84.6439 117° Southeast 179 206 7,000  Level Chicago Center
08:43PM 41.8828 -84.5839 118° Southeast 180 207 7,000  Level Chicago Center
08:44PM 41.8597 -84.5244 117° Southeast 180 207 7,000  Level Chicago Center
08:45PM 41.8394 -84.4636 114° Southeast 179 206 7,000  Level Chicago Center
08:46PM 41.8178 -84.4050 116° Southeast 178 205 7,000  Level Chicago Center
08:47PM 41.7944 -84.3458 118° Southeast 178 205 7,000  Level Chicago Center
08:48PM 41.7689 -84.2733 115° Southeast 179 206 7,000  Level Chicago Center
08:49PM 41.7492 -84.2128 114° Southeast 179 206 7,000  Level Chicago Center
08:50PM 41.7286 -84.1539 115° Southeast 177 204 7,000  Level Chicago Center
09:08PM 41.6236 -83.0108 97° East 179 206 7,000  Level Cleveland Center
09:08PM 41.6200 -82.9775 98° East 180 207 7,000  Level Cleveland Center
09:09PM 41.6156 -82.9022 94° East 181 208 7,000  Level Cleveland Center
09:10PM 41.6167 -82.8358 89° East 180 207 7,000  Level Cleveland Center
09:11PM 41.6139 -82.7744 93° East 182 209 7,000 -360 Level Cleveland Center
09:12PM 41.6111 -82.6967 93° East 193 222 6,300 -600 Descending Cleveland Center
09:13PM 41.6081 -82.6272 93° East 191 220 5,800 -540 Descending Cleveland Center
09:14PM 41.6075 -82.5492 91° East 190 219 5,300 -540 Descending Cleveland Center
09:15PM 41.6067 -82.4797 91° East 191 220 4,800 -600 Descending Cleveland Center
09:16PM 41.6036 -82.4103 93° East 187 215 4,200 -540 Descending Cleveland Center
09:17PM 41.6044 -82.3492 89° East 187 215 3,800 -480 Descending Cleveland Center
09:18PM 41.6036 -82.2714 91° East 188 216 3,300 -660 Descending Cleveland Center
09:19PM 41.6003 -82.2075 94° East 191 220 2,500 -420 Descending Cleveland Center
09:20PM 41.5972 -82.1381 93° East 167 192 2,500  Level Cleveland Center
09:21PM 41.5894 -82.0822 101° East 158 182 2,500  Level Cleveland Center
09:22PM 41.5758 -82.0125 105° East 163 188 2,500 -240 Level Cleveland Center
09:23PM 41.5661 -81.9514 102° East 170 196 2,100 -540 Descending Cleveland Center
09:25PM 41.5522 -81.8900 107° East 177 204 1,500 -300 Descending Cleveland Center
09:26PM 41.5383 -81.8342 108° East 158 182 1,600  Climbing Cleveland Center
09:27PM 41.5264 -81.7786 106° East 161 185 1,500 -300 Descending Cleveland Center
09:28PM 41.5144 -81.7228 106° East 151 174 1,000 -540 Descending Cleveland Center
09:30PM 41.5175 -81.6833 101° East  Level Estimated